sensor_id;sensor_type;location;lat;lon;timestamp;temperature;humidity
52675;DHT22;38569;52.722;6.440;2022-08-27T00:00:48;14.70;99.90
52675;DHT22;38569;52.722;6.440;2022-08-27T00:03:14;14.70;99.90
52675;DHT22;38569;52.722;6.440;2022-08-27T00:05:40;14.60;99.90
52675;DHT22;38569;52.722;6.440;2022-08-27T00:08:07;14.60;99.90
52675;DHT22;38569;52.722;6.440;2022-08-27T00:10:36;14.60;99.90
52675;DHT22;38569;52.722;6.440;2022-08-27T00:13:01;14.50;99.90
52675;DHT22;38569;52.722;6.440;2022-08-27T00:15:27;14.50;99.90
52675;DHT22;38569;52.722;6.440;2022-08-27T00:17:53;14.50;99.90
52675;DHT22;38569;52.722;6.440;2022-08-27T00:20:22;14.40;99.90
52675;DHT22;38569;52.722;6.440;2022-08-27T00:22:48;14.40;99.90
52675;DHT22;38569;52.722;6.440;2022-08-27T00:25:14;14.40;99.90
52675;DHT22;38569;52.722;6.440;2022-08-27T00:27:40;14.40;99.90
52675;DHT22;38569;52.722;6.440;2022-08-27T00:30:09;14.40;99.90
52675;DHT22;38569;52.722;6.440;2022-08-27T00:32:37;14.20;99.90
52675;DHT22;38569;52.722;6.440;2022-08-27T00:35:05;14.20;99.90
52675;DHT22;38569;52.722;6.440;2022-08-27T00:37:31;14.20;99.90
52675;DHT22;38569;52.722;6.440;2022-08-27T00:39:57;14.20;99.90
52675;DHT22;38569;52.722;6.440;2022-08-27T00:42:23;14.10;99.90
52675;DHT22;38569;52.722;6.440;2022-08-27T00:44:49;14.10;99.90
52675;DHT22;38569;52.722;6.440;2022-08-27T00:47:19;14.00;99.90
52675;DHT22;38569;52.722;6.440;2022-08-27T00:49:52;14.00;99.90
52675;DHT22;38569;52.722;6.440;2022-08-27T00:52:28;14.00;99.90
52675;DHT22;38569;52.722;6.440;2022-08-27T00:55:11;14.00;99.90
52675;DHT22;38569;52.722;6.440;2022-08-27T00:57:38;13.90;99.90
52675;DHT22;38569;52.722;6.440;2022-08-27T01:00:13;13.80;99.90
52675;DHT22;38569;52.722;6.440;2022-08-27T01:02:39;13.80;99.90
52675;DHT22;38569;52.722;6.440;2022-08-27T01:05:13;13.70;99.90
52675;DHT22;38569;52.722;6.440;2022-08-27T01:07:43;13.80;99.90
52675;DHT22;38569;52.722;6.440;2022-08-27T01:10:12;13.70;99.90
52675;DHT22;38569;52.722;6.440;2022-08-27T01:12:39;13.70;99.90
52675;DHT22;38569;52.722;6.440;2022-08-27T01:15:08;13.70;99.90
52675;DHT22;38569;52.722;6.440;2022-08-27T01:17:37;13.70;99.90
52675;DHT22;38569;52.722;6.440;2022-08-27T01:20:06;13.70;99.90
52675;DHT22;38569;52.722;6.440;2022-08-27T01:23:01;13.70;99.90
52675;DHT22;38569;52.722;6.440;2022-08-27T01:25:29;13.80;99.90
52675;DHT22;38569;52.722;6.440;2022-08-27T01:27:56;13.80;99.90
52675;DHT22;38569;52.722;6.440;2022-08-27T01:30:24;13.80;99.90
52675;DHT22;38569;52.722;6.440;2022-08-27T01:32:50;13.80;99.90
52675;DHT22;38569;52.722;6.440;2022-08-27T01:35:16;13.80;99.90
52675;DHT22;38569;52.722;6.440;2022-08-27T01:37:46;13.80;99.90
52675;DHT22;38569;52.722;6.440;2022-08-27T01:40:12;13.80;99.90
52675;DHT22;38569;52.722;6.440;2022-08-27T01:42:41;13.80;99.90
52675;DHT22;38569;52.722;6.440;2022-08-27T01:45:21;13.70;99.90
52675;DHT22;38569;52.722;6.440;2022-08-27T01:47:47;13.70;99.90
52675;DHT22;38569;52.722;6.440;2022-08-27T01:50:19;13.70;99.90
52675;DHT22;38569;52.722;6.440;2022-08-27T01:52:45;13.80;99.90
52675;DHT22;38569;52.722;6.440;2022-08-27T01:55:13;13.80;99.90
52675;DHT22;38569;52.722;6.440;2022-08-27T01:57:40;13.80;99.90
52675;DHT22;38569;52.722;6.440;2022-08-27T02:00:13;13.80;99.90
52675;DHT22;38569;52.722;6.440;2022-08-27T02:02:40;13.80;99.90
52675;DHT22;38569;52.722;6.440;2022-08-27T02:05:07;13.80;99.90
52675;DHT22;38569;52.722;6.440;2022-08-27T02:07:33;13.70;99.90
52675;DHT22;38569;52.722;6.440;2022-08-27T02:09:58;13.70;99.90
52675;DHT22;38569;52.722;6.440;2022-08-27T02:12:24;13.60;99.90
52675;DHT22;38569;52.722;6.440;2022-08-27T02:14:50;13.50;99.90
52675;DHT22;38569;52.722;6.440;2022-08-27T02:17:16;13.50;99.90
52675;DHT22;38569;52.722;6.440;2022-08-27T02:19:42;13.50;99.90
52675;DHT22;38569;52.722;6.440;2022-08-27T02:22:08;13.50;99.90
52675;DHT22;38569;52.722;6.440;2022-08-27T02:24:34;13.50;99.90
52675;DHT22;38569;52.722;6.440;2022-08-27T02:26:59;13.50;99.90
52675;DHT22;38569;52.722;6.440;2022-08-27T02:29:26;13.40;99.90
52675;DHT22;38569;52.722;6.440;2022-08-27T02:31:52;13.40;99.90
52675;DHT22;38569;52.722;6.440;2022-08-27T02:34:18;13.50;99.90
52675;DHT22;38569;52.722;6.440;2022-08-27T02:36:44;13.40;99.90
52675;DHT22;38569;52.722;6.440;2022-08-27T02:39:10;13.40;99.90
52675;DHT22;38569;52.722;6.440;2022-08-27T02:41:36;13.40;99.90
52675;DHT22;38569;52.722;6.440;2022-08-27T02:44:02;13.40;99.90
52675;DHT22;38569;52.722;6.440;2022-08-27T02:46:29;13.40;99.90
52675;DHT22;38569;52.722;6.440;2022-08-27T02:48:55;13.40;99.90
52675;DHT22;38569;52.722;6.440;2022-08-27T02:51:20;13.40;99.90
52675;DHT22;38569;52.722;6.440;2022-08-27T02:53:46;13.30;99.90
52675;DHT22;38569;52.722;6.440;2022-08-27T02:56:12;13.30;99.90
52675;DHT22;38569;52.722;6.440;2022-08-27T02:58:38;13.20;99.90
52675;DHT22;38569;52.722;6.440;2022-08-27T03:01:06;13.20;99.90
52675;DHT22;38569;52.722;6.440;2022-08-27T03:03:32;13.20;99.90
52675;DHT22;38569;52.722;6.440;2022-08-27T03:05:57;13.20;99.90
52675;DHT22;38569;52.722;6.440;2022-08-27T03:08:25;13.10;99.90
52675;DHT22;38569;52.722;6.440;2022-08-27T03:10:52;13.10;99.90
52675;DHT22;38569;52.722;6.440;2022-08-27T03:13:18;13.00;99.90
52675;DHT22;38569;52.722;6.440;2022-08-27T03:15:44;13.00;99.90
52675;DHT22;38569;52.722;6.440;2022-08-27T03:18:10;13.00;99.90
52675;DHT22;38569;52.722;6.440;2022-08-27T03:20:48;13.00;99.90
52675;DHT22;38569;52.722;6.440;2022-08-27T03:23:15;12.90;99.90
52675;DHT22;38569;52.722;6.440;2022-08-27T03:25:49;12.90;99.90
52675;DHT22;38569;52.722;6.440;2022-08-27T03:28:19;12.80;99.90
52675;DHT22;38569;52.722;6.440;2022-08-27T03:30:54;12.80;99.90
52675;DHT22;38569;52.722;6.440;2022-08-27T03:33:23;12.90;99.90
52675;DHT22;38569;52.722;6.440;2022-08-27T03:35:49;12.90;99.90
52675;DHT22;38569;52.722;6.440;2022-08-27T03:38:15;13.00;99.90
52675;DHT22;38569;52.722;6.440;2022-08-27T03:40:42;12.90;99.90
52675;DHT22;38569;52.722;6.440;2022-08-27T03:43:12;13.00;99.90
52675;DHT22;38569;52.722;6.440;2022-08-27T03:45:38;12.90;99.90
52675;DHT22;38569;52.722;6.440;2022-08-27T03:48:06;13.00;99.90
52675;DHT22;38569;52.722;6.440;2022-08-27T03:50:32;12.90;99.90
52675;DHT22;38569;52.722;6.440;2022-08-27T03:52:58;13.00;99.90
52675;DHT22;38569;52.722;6.440;2022-08-27T03:55:23;13.00;99.90
52675;DHT22;38569;52.722;6.440;2022-08-27T03:57:49;13.00;99.90
52675;DHT22;38569;52.722;6.440;2022-08-27T04:00:15;13.00;99.90
52675;DHT22;38569;52.722;6.440;2022-08-27T04:02:41;13.10;99.90
52675;DHT22;38569;52.722;6.440;2022-08-27T04:05:10;13.10;99.90
52675;DHT22;38569;52.722;6.440;2022-08-27T04:07:37;13.20;99.90
52675;DHT22;38569;52.722;6.440;2022-08-27T04:10:06;13.20;99.90
52675;DHT22;38569;52.722;6.440;2022-08-27T04:12:32;13.10;99.90
52675;DHT22;38569;52.722;6.440;2022-08-27T04:14:59;13.10;99.90
52675;DHT22;38569;52.722;6.440;2022-08-27T04:17:25;13.00;99.90
52675;DHT22;38569;52.722;6.440;2022-08-27T04:19:51;12.90;99.90
52675;DHT22;38569;52.722;6.440;2022-08-27T04:22:17;12.90;99.90
52675;DHT22;38569;52.722;6.440;2022-08-27T04:24:43;12.90;99.90
52675;DHT22;38569;52.722;6.440;2022-08-27T04:27:09;12.90;99.90
52675;DHT22;38569;52.722;6.440;2022-08-27T04:29:36;12.80;99.90
52675;DHT22;38569;52.722;6.440;2022-08-27T04:32:03;12.80;99.90
52675;DHT22;38569;52.722;6.440;2022-08-27T04:34:29;12.80;99.90
52675;DHT22;38569;52.722;6.440;2022-08-27T04:36:56;12.70;99.90
52675;DHT22;38569;52.722;6.440;2022-08-27T04:39:22;12.60;99.90
52675;DHT22;38569;52.722;6.440;2022-08-27T04:41:49;12.60;99.90
52675;DHT22;38569;52.722;6.440;2022-08-27T04:44:15;12.60;99.90
52675;DHT22;38569;52.722;6.440;2022-08-27T04:46:41;12.60;99.90
52675;DHT22;38569;52.722;6.440;2022-08-27T04:49:10;12.60;99.90
52675;DHT22;38569;52.722;6.440;2022-08-27T04:51:37;12.70;99.90
52675;DHT22;38569;52.722;6.440;2022-08-27T04:54:04;12.80;99.90
52675;DHT22;38569;52.722;6.440;2022-08-27T04:56:31;13.00;99.90
52675;DHT22;38569;52.722;6.440;2022-08-27T04:58:57;13.10;99.90
52675;DHT22;38569;52.722;6.440;2022-08-27T05:01:25;13.30;99.90
52675;DHT22;38569;52.722;6.440;2022-08-27T05:03:53;13.30;99.90
52675;DHT22;38569;52.722;6.440;2022-08-27T05:06:20;13.40;99.90
52675;DHT22;38569;52.722;6.440;2022-08-27T05:08:47;13.50;99.90
52675;DHT22;38569;52.722;6.440;2022-08-27T05:11:16;13.60;99.90
52675;DHT22;38569;52.722;6.440;2022-08-27T05:13:43;13.70;99.90
52675;DHT22;38569;52.722;6.440;2022-08-27T05:16:16;13.90;99.90
52675;DHT22;38569;52.722;6.440;2022-08-27T05:18:43;14.00;99.90
52675;DHT22;38569;52.722;6.440;2022-08-27T05:21:14;14.00;99.90
52675;DHT22;38569;52.722;6.440;2022-08-27T05:23:39;14.10;99.90
52675;DHT22;38569;52.722;6.440;2022-08-27T05:26:06;14.10;99.90
52675;DHT22;38569;52.722;6.440;2022-08-27T05:28:33;14.20;99.90
52675;DHT22;38569;52.722;6.440;2022-08-27T05:31:04;14.30;99.90
52675;DHT22;38569;52.722;6.440;2022-08-27T05:33:31;14.40;99.90
52675;DHT22;38569;52.722;6.440;2022-08-27T05:35:59;14.50;99.90
52675;DHT22;38569;52.722;6.440;2022-08-27T05:38:26;14.50;99.90
52675;DHT22;38569;52.722;6.440;2022-08-27T05:41:10;14.50;99.90
52675;DHT22;38569;52.722;6.440;2022-08-27T05:43:38;14.50;99.90
52675;DHT22;38569;52.722;6.440;2022-08-27T05:46:11;14.60;99.90
52675;DHT22;38569;52.722;6.440;2022-08-27T05:48:38;14.50;99.90
52675;DHT22;38569;52.722;6.440;2022-08-27T05:51:21;14.60;99.90
52675;DHT22;38569;52.722;6.440;2022-08-27T05:53:47;14.60;99.90
52675;DHT22;38569;52.722;6.440;2022-08-27T05:56:17;14.60;99.90
52675;DHT22;38569;52.722;6.440;2022-08-27T05:58:43;14.60;99.90
52675;DHT22;38569;52.722;6.440;2022-08-27T06:01:28;14.60;99.90
52675;DHT22;38569;52.722;6.440;2022-08-27T06:03:54;14.60;99.90
52675;DHT22;38569;52.722;6.440;2022-08-27T06:06:21;14.60;99.90
52675;DHT22;38569;52.722;6.440;2022-08-27T06:08:48;14.60;99.90
52675;DHT22;38569;52.722;6.440;2022-08-27T06:11:15;14.70;99.90
52675;DHT22;38569;52.722;6.440;2022-08-27T06:13:41;14.70;99.90
52675;DHT22;38569;52.722;6.440;2022-08-27T06:16:08;14.80;99.90
52675;DHT22;38569;52.722;6.440;2022-08-27T06:18:36;14.70;99.90
52675;DHT22;38569;52.722;6.440;2022-08-27T06:21:03;14.60;99.90
52675;DHT22;38569;52.722;6.440;2022-08-27T06:23:29;14.70;99.90
52675;DHT22;38569;52.722;6.440;2022-08-27T06:25:55;14.80;99.90
52675;DHT22;38569;52.722;6.440;2022-08-27T06:28:23;14.80;99.90
52675;DHT22;38569;52.722;6.440;2022-08-27T06:30:49;14.80;99.90
52675;DHT22;38569;52.722;6.440;2022-08-27T06:33:15;14.90;99.90
52675;DHT22;38569;52.722;6.440;2022-08-27T06:35:41;14.90;99.90
52675;DHT22;38569;52.722;6.440;2022-08-27T06:38:07;15.10;99.90
52675;DHT22;38569;52.722;6.440;2022-08-27T06:40:33;15.10;99.90
52675;DHT22;38569;52.722;6.440;2022-08-27T06:42:59;15.30;99.90
52675;DHT22;38569;52.722;6.440;2022-08-27T06:45:25;15.40;99.90
52675;DHT22;38569;52.722;6.440;2022-08-27T06:47:51;15.50;99.90
52675;DHT22;38569;52.722;6.440;2022-08-27T06:50:17;15.60;99.90
52675;DHT22;38569;52.722;6.440;2022-08-27T06:52:45;15.70;99.90
52675;DHT22;38569;52.722;6.440;2022-08-27T06:55:12;15.80;99.90
52675;DHT22;38569;52.722;6.440;2022-08-27T06:57:37;15.90;99.90
52675;DHT22;38569;52.722;6.440;2022-08-27T07:00:05;15.90;99.90
52675;DHT22;38569;52.722;6.440;2022-08-27T07:02:32;16.00;99.90
52675;DHT22;38569;52.722;6.440;2022-08-27T07:04:58;16.10;99.90
52675;DHT22;38569;52.722;6.440;2022-08-27T07:07:23;16.20;99.90
52675;DHT22;38569;52.722;6.440;2022-08-27T07:09:49;16.30;99.90
52675;DHT22;38569;52.722;6.440;2022-08-27T07:12:15;16.40;99.90
52675;DHT22;38569;52.722;6.440;2022-08-27T07:14:41;16.60;99.90
52675;DHT22;38569;52.722;6.440;2022-08-27T07:17:07;16.60;99.90
52675;DHT22;38569;52.722;6.440;2022-08-27T07:19:35;16.80;99.90
52675;DHT22;38569;52.722;6.440;2022-08-27T07:22:03;16.90;99.90
52675;DHT22;38569;52.722;6.440;2022-08-27T07:24:29;17.10;99.90
52675;DHT22;38569;52.722;6.440;2022-08-27T07:26:55;17.10;99.90
52675;DHT22;38569;52.722;6.440;2022-08-27T07:29:21;17.10;99.90
52675;DHT22;38569;52.722;6.440;2022-08-27T07:31:47;17.30;99.90
52675;DHT22;38569;52.722;6.440;2022-08-27T07:34:12;17.50;99.90
52675;DHT22;38569;52.722;6.440;2022-08-27T07:36:38;17.60;99.90
52675;DHT22;38569;52.722;6.440;2022-08-27T07:39:06;17.70;99.90
52675;DHT22;38569;52.722;6.440;2022-08-27T07:41:33;17.80;99.90
52675;DHT22;38569;52.722;6.440;2022-08-27T07:44:18;17.90;99.90
52675;DHT22;38569;52.722;6.440;2022-08-27T07:46:51;18.10;99.90
52675;DHT22;38569;52.722;6.440;2022-08-27T07:49:18;18.30;99.90
52675;DHT22;38569;52.722;6.440;2022-08-27T07:51:44;18.40;99.90
52675;DHT22;38569;52.722;6.440;2022-08-27T07:54:10;18.60;99.90
52675;DHT22;38569;52.722;6.440;2022-08-27T07:56:36;18.70;99.90
52675;DHT22;38569;52.722;6.440;2022-08-27T07:59:01;18.70;99.90
52675;DHT22;38569;52.722;6.440;2022-08-27T08:01:28;18.80;99.90
52675;DHT22;38569;52.722;6.440;2022-08-27T08:03:54;18.80;99.90
52675;DHT22;38569;52.722;6.440;2022-08-27T08:06:20;18.90;99.90
52675;DHT22;38569;52.722;6.440;2022-08-27T08:08:46;19.00;99.90
52675;DHT22;38569;52.722;6.440;2022-08-27T08:11:14;19.10;99.90
52675;DHT22;38569;52.722;6.440;2022-08-27T08:13:40;19.20;99.90
52675;DHT22;38569;52.722;6.440;2022-08-27T08:16:06;19.30;99.90
52675;DHT22;38569;52.722;6.440;2022-08-27T08:18:33;19.50;99.90
52675;DHT22;38569;52.722;6.440;2022-08-27T08:21:06;19.70;99.90
52675;DHT22;38569;52.722;6.440;2022-08-27T08:23:32;19.80;99.90
52675;DHT22;38569;52.722;6.440;2022-08-27T08:25:58;19.80;99.90
52675;DHT22;38569;52.722;6.440;2022-08-27T08:28:25;19.80;99.90
52675;DHT22;38569;52.722;6.440;2022-08-27T08:30:53;19.80;99.90
52675;DHT22;38569;52.722;6.440;2022-08-27T08:33:19;19.90;99.90
52675;DHT22;38569;52.722;6.440;2022-08-27T08:35:45;20.10;99.90
52675;DHT22;38569;52.722;6.440;2022-08-27T08:38:11;20.40;99.90
52675;DHT22;38569;52.722;6.440;2022-08-27T08:40:46;20.50;99.90
52675;DHT22;38569;52.722;6.440;2022-08-27T08:43:40;20.60;99.90
52675;DHT22;38569;52.722;6.440;2022-08-27T08:46:30;20.80;99.90
52675;DHT22;38569;52.722;6.440;2022-08-27T08:49:01;21.10;99.90
52675;DHT22;38569;52.722;6.440;2022-08-27T08:51:37;21.30;99.90
52675;DHT22;38569;52.722;6.440;2022-08-27T08:54:18;21.40;99.90
52675;DHT22;38569;52.722;6.440;2022-08-27T08:56:52;21.50;99.90
52675;DHT22;38569;52.722;6.440;2022-08-27T08:59:40;21.80;99.90
52675;DHT22;38569;52.722;6.440;2022-08-27T09:02:12;22.50;99.90
52675;DHT22;38569;52.722;6.440;2022-08-27T09:04:40;23.60;99.90
52675;DHT22;38569;52.722;6.440;2022-08-27T09:10:21;23.70;99.90
52675;DHT22;38569;52.722;6.440;2022-08-27T09:12:52;24.20;99.90
52675;DHT22;38569;52.722;6.440;2022-08-27T09:15:22;24.70;99.10
52675;DHT22;38569;52.722;6.440;2022-08-27T09:17:49;25.20;98.40
52675;DHT22;38569;52.722;6.440;2022-08-27T09:20:18;25.70;96.90
52675;DHT22;38569;52.722;6.440;2022-08-27T09:23:05;25.60;95.00
52675;DHT22;38569;52.722;6.440;2022-08-27T09:25:38;24.90;94.10
52675;DHT22;38569;52.722;6.440;2022-08-27T09:28:12;24.20;95.40
52675;DHT22;38569;52.722;6.440;2022-08-27T09:31:05;23.60;95.90
52675;DHT22;38569;52.722;6.440;2022-08-27T09:33:30;23.30;96.80
52675;DHT22;38569;52.722;6.440;2022-08-27T09:36:01;23.10;97.40
52675;DHT22;38569;52.722;6.440;2022-08-27T09:38:31;22.70;98.30
52675;DHT22;38569;52.722;6.440;2022-08-27T09:41:12;22.40;99.30
52675;DHT22;38569;52.722;6.440;2022-08-27T09:43:41;22.10;99.80
52675;DHT22;38569;52.722;6.440;2022-08-27T09:46:23;22.00;99.90
52675;DHT22;38569;52.722;6.440;2022-08-27T09:48:50;21.80;99.90
52675;DHT22;38569;52.722;6.440;2022-08-27T09:51:20;21.80;99.90
52675;DHT22;38569;52.722;6.440;2022-08-27T09:53:54;22.00;99.90
52675;DHT22;38569;52.722;6.440;2022-08-27T09:56:31;22.80;99.80
52675;DHT22;38569;52.722;6.440;2022-08-27T09:59:10;23.90;98.80
52675;DHT22;38569;52.722;6.440;2022-08-27T10:02:02;24.70;96.40
52675;DHT22;38569;52.722;6.440;2022-08-27T10:04:45;24.40;95.70
52675;DHT22;38569;52.722;6.440;2022-08-27T10:07:50;24.70;95.40
52675;DHT22;38569;52.722;6.440;2022-08-27T10:13:16;23.70;96.70
52675;DHT22;38569;52.722;6.440;2022-08-27T10:18:48;23.00;97.90
52675;DHT22;38569;52.722;6.440;2022-08-27T10:21:23;23.20;97.30
52675;DHT22;38569;52.722;6.440;2022-08-27T10:29:35;25.30;94.50
52675;DHT22;38569;52.722;6.440;2022-08-27T10:35:02;24.60;93.70
52675;DHT22;38569;52.722;6.440;2022-08-27T10:43:01;23.70;94.00
52675;DHT22;38569;52.722;6.440;2022-08-27T10:45:46;24.10;92.30
52675;DHT22;38569;52.722;6.440;2022-08-27T10:48:26;24.20;93.40
52675;DHT22;38569;52.722;6.440;2022-08-27T10:54:09;23.90;92.60
52675;DHT22;38569;52.722;6.440;2022-08-27T10:56:55;23.80;93.00
52675;DHT22;38569;52.722;6.440;2022-08-27T10:59:28;23.60;92.90
52675;DHT22;38569;52.722;6.440;2022-08-27T11:04:55;23.90;93.40
52675;DHT22;38569;52.722;6.440;2022-08-27T11:07:39;24.20;92.50
52675;DHT22;38569;52.722;6.440;2022-08-27T11:10:28;24.40;93.00
52675;DHT22;38569;52.722;6.440;2022-08-27T11:12:55;24.40;92.50
52675;DHT22;38569;52.722;6.440;2022-08-27T11:15:28;24.30;92.60
52675;DHT22;38569;52.722;6.440;2022-08-27T11:20:56;24.30;91.50
52675;DHT22;38569;52.722;6.440;2022-08-27T11:26:04;24.30;91.70
52675;DHT22;38569;52.722;6.440;2022-08-27T11:28:40;24.40;91.90
52675;DHT22;38569;52.722;6.440;2022-08-27T11:31:46;24.50;91.50
52675;DHT22;38569;52.722;6.440;2022-08-27T11:44:43;24.60;91.50
52675;DHT22;38569;52.722;6.440;2022-08-27T11:47:21;24.40;91.20
52675;DHT22;38569;52.722;6.440;2022-08-27T11:49:57;24.80;91.40
52675;DHT22;38569;52.722;6.440;2022-08-27T11:57:49;25.20;87.50
52675;DHT22;38569;52.722;6.440;2022-08-27T12:03:23;25.00;89.70
52675;DHT22;38569;52.722;6.440;2022-08-27T12:06:09;24.80;89.90
52675;DHT22;38569;52.722;6.440;2022-08-27T12:08:35;24.70;90.30
52675;DHT22;38569;52.722;6.440;2022-08-27T12:11:14;24.70;90.10
52675;DHT22;38569;52.722;6.440;2022-08-27T12:13:59;24.50;89.20
52675;DHT22;38569;52.722;6.440;2022-08-27T12:22:01;24.20;90.40
52675;DHT22;38569;52.722;6.440;2022-08-27T12:24:51;24.10;89.00
52675;DHT22;38569;52.722;6.440;2022-08-27T12:29:50;23.80;90.30
52675;DHT22;38569;52.722;6.440;2022-08-27T12:32:33;24.00;90.20
52675;DHT22;38569;52.722;6.440;2022-08-27T12:35:15;24.20;90.70
52675;DHT22;38569;52.722;6.440;2022-08-27T12:40:29;24.60;87.20
52675;DHT22;38569;52.722;6.440;2022-08-27T12:43:18;24.70;86.60
52675;DHT22;38569;52.722;6.440;2022-08-27T12:48:11;25.10;83.70
52675;DHT22;38569;52.722;6.440;2022-08-27T12:50:40;25.00;83.90
52675;DHT22;38569;52.722;6.440;2022-08-27T12:55:43;24.40;84.00
52675;DHT22;38569;52.722;6.440;2022-08-27T13:03:50;24.50;85.20
52675;DHT22;38569;52.722;6.440;2022-08-27T13:06:31;24.50;84.90
52675;DHT22;38569;52.722;6.440;2022-08-27T13:09:03;24.30;84.70
52675;DHT22;38569;52.722;6.440;2022-08-27T13:11:32;24.40;84.30
52675;DHT22;38569;52.722;6.440;2022-08-27T13:14:11;24.50;85.10
52675;DHT22;38569;52.722;6.440;2022-08-27T13:16:43;24.40;83.50
52675;DHT22;38569;52.722;6.440;2022-08-27T13:21:51;24.30;83.60
52675;DHT22;38569;52.722;6.440;2022-08-27T13:24:26;24.60;82.40
52675;DHT22;38569;52.722;6.440;2022-08-27T13:26:52;24.40;82.20
52675;DHT22;38569;52.722;6.440;2022-08-27T13:29:23;24.30;84.10
52675;DHT22;38569;52.722;6.440;2022-08-27T13:31:50;24.00;85.90
52675;DHT22;38569;52.722;6.440;2022-08-27T13:34:24;23.80;87.60
52675;DHT22;38569;52.722;6.440;2022-08-27T13:39:19;23.30;88.40
52675;DHT22;38569;52.722;6.440;2022-08-27T13:41:46;23.60;86.90
52675;DHT22;38569;52.722;6.440;2022-08-27T13:44:20;23.80;84.70
52675;DHT22;38569;52.722;6.440;2022-08-27T13:46:56;24.10;84.00
52675;DHT22;38569;52.722;6.440;2022-08-27T13:49:26;24.50;83.40
52675;DHT22;38569;52.722;6.440;2022-08-27T13:52:09;25.00;81.50
52675;DHT22;38569;52.722;6.440;2022-08-27T13:54:50;25.40;79.20
52675;DHT22;38569;52.722;6.440;2022-08-27T13:57:45;25.40;80.50
52675;DHT22;38569;52.722;6.440;2022-08-27T14:02:40;24.90;80.00
52675;DHT22;38569;52.722;6.440;2022-08-27T14:05:25;24.70;80.40
52675;DHT22;38569;52.722;6.440;2022-08-27T14:07:56;24.30;81.00
52675;DHT22;38569;52.722;6.440;2022-08-27T14:10:37;24.00;81.70
52675;DHT22;38569;52.722;6.440;2022-08-27T14:13:10;23.80;82.10
52675;DHT22;38569;52.722;6.440;2022-08-27T14:15:41;23.70;81.70
52675;DHT22;38569;52.722;6.440;2022-08-27T14:18:28;23.70;81.80
52675;DHT22;38569;52.722;6.440;2022-08-27T14:20:56;24.00;81.10
52675;DHT22;38569;52.722;6.440;2022-08-27T14:23:24;24.60;79.70
52675;DHT22;38569;52.722;6.440;2022-08-27T14:25:52;24.80;79.40
52675;DHT22;38569;52.722;6.440;2022-08-27T14:28:20;25.00;79.60
52675;DHT22;38569;52.722;6.440;2022-08-27T14:30:47;25.10;79.60
52675;DHT22;38569;52.722;6.440;2022-08-27T14:33:12;25.20;80.00
52675;DHT22;38569;52.722;6.440;2022-08-27T14:35:39;24.70;79.20
52675;DHT22;38569;52.722;6.440;2022-08-27T14:38:15;24.50;80.10
52675;DHT22;38569;52.722;6.440;2022-08-27T14:40:43;24.40;81.00
52675;DHT22;38569;52.722;6.440;2022-08-27T14:43:09;24.00;82.20
52675;DHT22;38569;52.722;6.440;2022-08-27T14:45:38;23.70;83.40
52675;DHT22;38569;52.722;6.440;2022-08-27T14:48:07;23.40;83.40
52675;DHT22;38569;52.722;6.440;2022-08-27T14:50:36;23.20;83.10
52675;DHT22;38569;52.722;6.440;2022-08-27T14:53:02;23.10;83.30
52675;DHT22;38569;52.722;6.440;2022-08-27T14:55:28;23.30;84.00
52675;DHT22;38569;52.722;6.440;2022-08-27T14:57:56;23.60;83.30
52675;DHT22;38569;52.722;6.440;2022-08-27T15:00:22;23.80;82.90
52675;DHT22;38569;52.722;6.440;2022-08-27T15:02:48;24.20;82.40
52675;DHT22;38569;52.722;6.440;2022-08-27T15:05:15;24.40;80.90
52675;DHT22;38569;52.722;6.440;2022-08-27T15:07:40;24.60;79.90
52675;DHT22;38569;52.722;6.440;2022-08-27T15:10:06;24.50;79.70
52675;DHT22;38569;52.722;6.440;2022-08-27T15:12:32;24.50;80.30
52675;DHT22;38569;52.722;6.440;2022-08-27T15:14:58;24.40;79.80
52675;DHT22;38569;52.722;6.440;2022-08-27T15:17:24;23.80;81.60
52675;DHT22;38569;52.722;6.440;2022-08-27T15:19:49;23.70;81.80
52675;DHT22;38569;52.722;6.440;2022-08-27T15:22:18;23.20;82.30
52675;DHT22;38569;52.722;6.440;2022-08-27T15:24:47;22.90;84.10
52675;DHT22;38569;52.722;6.440;2022-08-27T15:27:13;22.80;85.70
52675;DHT22;38569;52.722;6.440;2022-08-27T15:29:39;22.60;86.30
52675;DHT22;38569;52.722;6.440;2022-08-27T15:32:05;22.40;86.80
52675;DHT22;38569;52.722;6.440;2022-08-27T15:34:32;22.50;87.40
52675;DHT22;38569;52.722;6.440;2022-08-27T15:36:57;22.60;87.80
52675;DHT22;38569;52.722;6.440;2022-08-27T15:39:24;22.80;87.80
52675;DHT22;38569;52.722;6.440;2022-08-27T15:41:50;23.00;87.40
52675;DHT22;38569;52.722;6.440;2022-08-27T15:44:15;23.10;85.40
52675;DHT22;38569;52.722;6.440;2022-08-27T15:46:41;23.10;85.50
52675;DHT22;38569;52.722;6.440;2022-08-27T15:49:10;22.70;84.80
52675;DHT22;38569;52.722;6.440;2022-08-27T15:51:37;22.30;85.60
52675;DHT22;38569;52.722;6.440;2022-08-27T15:54:03;21.90;87.40
52675;DHT22;38569;52.722;6.440;2022-08-27T15:56:29;21.70;87.60
52675;DHT22;38569;52.722;6.440;2022-08-27T15:58:55;21.60;89.20
52675;DHT22;38569;52.722;6.440;2022-08-27T16:01:25;21.60;89.40
52675;DHT22;38569;52.722;6.440;2022-08-27T16:03:51;21.70;88.70
52675;DHT22;38569;52.722;6.440;2022-08-27T16:06:17;21.70;89.40
52675;DHT22;38569;52.722;6.440;2022-08-27T16:08:43;21.80;90.00
52675;DHT22;38569;52.722;6.440;2022-08-27T16:11:09;21.70;89.90
52675;DHT22;38569;52.722;6.440;2022-08-27T16:13:35;21.60;90.70
52675;DHT22;38569;52.722;6.440;2022-08-27T16:16:03;21.60;90.90
52675;DHT22;38569;52.722;6.440;2022-08-27T16:18:32;21.50;90.80
52675;DHT22;38569;52.722;6.440;2022-08-27T16:21:01;21.00;91.20
52675;DHT22;38569;52.722;6.440;2022-08-27T16:23:28;20.80;91.80
52675;DHT22;38569;52.722;6.440;2022-08-27T16:25:54;20.60;92.30
52675;DHT22;38569;52.722;6.440;2022-08-27T16:28:21;20.40;92.50
52675;DHT22;38569;52.722;6.440;2022-08-27T16:30:48;20.40;93.20
52675;DHT22;38569;52.722;6.440;2022-08-27T16:33:14;20.30;94.00
52675;DHT22;38569;52.722;6.440;2022-08-27T16:35:41;20.20;94.60
52675;DHT22;38569;52.722;6.440;2022-08-27T16:38:07;20.20;95.20
52675;DHT22;38569;52.722;6.440;2022-08-27T16:40:39;20.20;95.00
52675;DHT22;38569;52.722;6.440;2022-08-27T16:43:06;20.20;95.10
52675;DHT22;38569;52.722;6.440;2022-08-27T16:45:32;20.10;95.00
52675;DHT22;38569;52.722;6.440;2022-08-27T16:47:58;20.10;95.40
52675;DHT22;38569;52.722;6.440;2022-08-27T16:50:42;20.10;95.60
52675;DHT22;38569;52.722;6.440;2022-08-27T16:53:13;20.10;95.90
52675;DHT22;38569;52.722;6.440;2022-08-27T16:55:41;20.20;97.00
52675;DHT22;38569;52.722;6.440;2022-08-27T16:58:23;20.20;98.00
52675;DHT22;38569;52.722;6.440;2022-08-27T17:00:52;20.20;99.20
52675;DHT22;38569;52.722;6.440;2022-08-27T17:03:20;20.10;99.50
52675;DHT22;38569;52.722;6.440;2022-08-27T17:05:46;20.10;99.70
52675;DHT22;38569;52.722;6.440;2022-08-27T17:08:14;20.00;99.90